createdAt,value
2019-05-25T00:01:47.145Z,5.33
2019-05-25T00:04:14.504Z,4.63
2019-05-25T00:06:41.338Z,3.47
2019-05-25T00:09:08.285Z,4.97
2019-05-25T00:11:35.176Z,3.93
2019-05-25T00:14:02.157Z,4.40
2019-05-25T00:16:29.121Z,3.87
2019-05-25T00:18:56.131Z,4.17
2019-05-25T00:21:23.548Z,5.10
2019-05-25T00:23:50.671Z,4.40
2019-05-25T00:26:17.926Z,4.30
2019-05-25T00:28:45.176Z,3.37
2019-05-25T00:31:12.000Z,3.93
2019-05-25T00:33:38.991Z,4.00
2019-05-25T00:36:06.327Z,4.40
2019-05-25T00:38:34.775Z,4.20
2019-05-25T00:41:01.645Z,3.87
2019-05-25T00:43:28.499Z,3.87
2019-05-25T00:45:55.315Z,4.20
2019-05-25T00:48:22.909Z,4.33
2019-05-25T00:50:50.344Z,4.40
2019-05-25T00:53:17.936Z,4.27
2019-05-25T00:55:45.196Z,4.00
2019-05-25T00:58:12.165Z,4.60
2019-05-25T01:00:39.557Z,4.10
2019-05-25T01:03:07.063Z,4.33
2019-05-25T01:05:34.369Z,4.27
2019-05-25T01:08:01.424Z,4.23
2019-05-25T01:10:28.425Z,4.00
2019-05-25T01:12:55.489Z,4.83
2019-05-25T01:15:22.972Z,4.10
2019-05-25T01:17:50.312Z,4.50
2019-05-25T01:20:17.988Z,4.27
2019-05-25T01:22:46.448Z,4.30
2019-05-25T01:25:14.407Z,4.00
2019-05-25T01:27:41.464Z,4.00
2019-05-25T01:30:09.750Z,4.23
2019-05-25T01:32:36.696Z,3.90
2019-05-25T01:35:04.379Z,3.90
2019-05-25T01:37:31.764Z,5.03
2019-05-25T01:39:58.944Z,4.27
2019-05-25T01:42:25.935Z,4.30
2019-05-25T01:44:53.068Z,4.53
2019-05-25T01:47:20.195Z,3.90
2019-05-25T01:49:47.421Z,5.50
2019-05-25T01:52:14.296Z,4.03
2019-05-25T01:54:41.811Z,3.90
2019-05-25T01:57:09.891Z,4.23
2019-05-25T01:59:37.109Z,4.27
2019-05-25T02:02:05.080Z,4.27
2019-05-25T02:04:32.927Z,5.27
2019-05-25T02:07:00.180Z,4.13
2019-05-25T02:09:28.116Z,4.20
2019-05-25T02:11:55.094Z,4.70
2019-05-25T02:14:22.265Z,4.40
2019-05-25T02:16:49.269Z,5.17
2019-05-25T02:19:16.852Z,4.00
2019-05-25T02:21:44.076Z,4.87
2019-05-25T02:24:11.327Z,3.73
2019-05-25T02:26:38.344Z,5.23
2019-05-25T02:29:05.657Z,5.10
2019-05-25T02:31:33.112Z,5.23
2019-05-25T02:33:59.974Z,5.10
2019-05-25T02:36:27.064Z,5.57
2019-05-25T02:38:54.307Z,5.20
2019-05-25T02:41:21.274Z,4.87
2019-05-25T02:43:48.545Z,4.67
2019-05-25T02:46:15.632Z,5.00
2019-05-25T02:48:42.677Z,5.60
2019-05-25T02:51:10.855Z,5.13
2019-05-25T02:53:37.819Z,4.70
2019-05-25T02:56:04.808Z,4.33
2019-05-25T02:58:31.788Z,4.90
2019-05-25T03:00:59.039Z,5.17
2019-05-25T03:03:26.132Z,4.37
2019-05-25T03:05:54.957Z,5.10
2019-05-25T03:08:21.783Z,4.63
2019-05-25T03:10:49.256Z,4.90
2019-05-25T03:13:17.324Z,4.97
2019-05-25T03:15:45.211Z,4.80
2019-05-25T03:18:12.289Z,4.80
2019-05-25T03:20:39.575Z,5.13
2019-05-25T03:23:06.556Z,5.00
2019-05-25T03:25:46.804Z,4.17
2019-05-25T03:28:03.092Z,4.30
2019-05-25T03:30:32.381Z,4.77
2019-05-25T03:32:59.442Z,4.60
2019-05-25T03:35:26.529Z,4.40
2019-05-25T03:37:53.485Z,4.70
2019-05-25T03:40:20.584Z,4.60
2019-05-25T03:42:48.048Z,4.80
2019-05-25T03:45:15.625Z,4.87
2019-05-25T03:47:43.052Z,4.70
2019-05-25T03:50:10.107Z,4.90
2019-05-25T03:52:40.075Z,5.13
2019-05-25T03:55:07.443Z,4.40
2019-05-25T03:57:34.948Z,5.33
2019-05-25T04:00:02.048Z,5.00
2019-05-25T04:02:28.927Z,4.27
2019-05-25T04:04:55.883Z,4.60
2019-05-25T04:07:23.374Z,5.47
2019-05-25T04:09:50.352Z,4.93
2019-05-25T04:12:17.304Z,4.93
2019-05-25T04:14:44.182Z,4.83
2019-05-25T04:17:11.087Z,4.80
2019-05-25T04:19:38.077Z,5.17
2019-05-25T04:22:05.491Z,5.10
2019-05-25T04:24:32.781Z,5.20
2019-05-25T04:26:59.984Z,4.87
2019-05-25T04:29:26.857Z,5.53
2019-05-25T04:31:54.212Z,5.17
2019-05-25T04:34:21.192Z,4.83
2019-05-25T04:36:48.094Z,4.83
2019-05-25T04:39:15.059Z,4.80
2019-05-25T04:41:41.912Z,4.83
2019-05-25T04:44:09.668Z,4.60
2019-05-25T04:46:36.630Z,4.00
2019-05-25T04:49:03.740Z,4.43
2019-05-25T04:51:30.816Z,5.13
2019-05-25T04:53:58.775Z,4.87
2019-05-25T04:56:39.014Z,4.70
2019-05-25T04:58:55.580Z,4.73
2019-05-25T05:01:22.806Z,5.20
2019-05-25T05:03:50.169Z,5.27
2019-05-25T05:06:17.252Z,4.63
2019-05-25T05:08:44.237Z,4.80
2019-05-25T05:11:11.750Z,5.00
2019-05-25T05:13:39.788Z,5.20
2019-05-25T05:16:06.791Z,4.67
2019-05-25T05:18:34.188Z,4.83
2019-05-25T05:21:01.481Z,5.27
2019-05-25T05:23:28.664Z,6.17
2019-05-25T05:25:55.706Z,5.30
2019-05-25T05:28:22.524Z,5.13
2019-05-25T05:30:49.564Z,4.67
2019-05-25T05:33:16.598Z,5.70
2019-05-25T05:35:44.563Z,5.10
2019-05-25T05:38:11.833Z,5.37
2019-05-25T05:40:39.427Z,5.33
2019-05-25T05:43:10.208Z,5.00
2019-05-25T05:45:39.993Z,5.77
2019-05-25T05:48:09.459Z,5.40
2019-05-25T05:50:38.015Z,4.17
2019-05-25T05:53:05.156Z,5.60
2019-05-25T05:55:32.311Z,4.47
2019-05-25T05:58:00.032Z,4.50
2019-05-25T06:00:27.416Z,5.80
2019-05-25T06:02:54.836Z,4.77
2019-05-25T06:05:21.928Z,4.63
2019-05-25T06:07:48.905Z,5.00
2019-05-25T06:10:16.048Z,4.93
2019-05-25T06:12:42.913Z,4.53
2019-05-25T06:15:09.960Z,5.30
2019-05-25T06:17:37.112Z,4.40
2019-05-25T06:20:05.349Z,4.53
2019-05-25T06:22:32.472Z,4.80
2019-05-25T06:24:59.436Z,4.23
2019-05-25T06:27:27.715Z,4.27
2019-05-25T06:29:55.560Z,3.87
2019-05-25T06:32:22.389Z,3.70
2019-05-25T06:34:49.490Z,3.77
2019-05-25T06:37:16.464Z,3.83
2019-05-25T06:39:44.132Z,4.20
2019-05-25T06:42:11.592Z,3.67
2019-05-25T06:44:38.548Z,4.07
2019-05-25T06:47:05.769Z,3.93
2019-05-25T06:49:32.771Z,3.93
2019-05-25T06:51:59.758Z,3.60
2019-05-25T06:54:26.587Z,3.93
2019-05-25T06:56:53.623Z,4.40
2019-05-25T06:59:20.640Z,3.70
2019-05-25T07:01:47.760Z,3.50
2019-05-25T07:04:14.640Z,3.97
2019-05-25T07:06:41.865Z,3.77
2019-05-25T07:09:09.276Z,3.30
2019-05-25T07:11:37.082Z,3.60
2019-05-25T07:14:05.112Z,4.30
2019-05-25T07:16:32.115Z,3.93
2019-05-25T07:18:58.960Z,3.63
2019-05-25T07:21:25.952Z,2.97
2019-05-25T07:23:53.227Z,4.60
2019-05-25T07:26:20.649Z,3.43
2019-05-25T07:28:47.951Z,3.70
2019-05-25T07:31:14.949Z,3.80
2019-05-25T07:33:42.267Z,3.60
2019-05-25T07:36:09.268Z,3.63
2019-05-25T07:38:36.755Z,3.40
2019-05-25T07:41:03.825Z,3.60
2019-05-25T07:43:30.820Z,3.40
2019-05-25T07:45:58.074Z,3.00
2019-05-25T07:48:25.253Z,5.28
2019-05-25T07:50:52.376Z,24.77
2019-05-25T07:53:19.260Z,25.10
2019-05-25T07:55:46.263Z,14.63
2019-05-25T07:58:17.192Z,8.80
2019-05-25T08:00:42.432Z,7.17
2019-05-25T08:03:10.249Z,6.57
2019-05-25T08:05:37.532Z,5.37
2019-05-25T08:08:05.350Z,5.95
2019-05-25T08:10:34.557Z,7.50
2019-05-25T08:13:01.825Z,5.60
2019-05-25T08:15:28.907Z,4.07
2019-05-25T08:17:55.759Z,6.53
2019-05-25T08:20:22.615Z,5.90
2019-05-25T08:22:49.565Z,4.50
2019-05-25T08:25:16.721Z,4.60
2019-05-25T08:27:43.747Z,4.47
2019-05-25T08:30:11.500Z,4.03
2019-05-25T08:32:38.824Z,4.63
2019-05-25T08:35:06.432Z,4.13
2019-05-25T08:37:33.519Z,3.80
2019-05-25T08:40:00.633Z,4.40
2019-05-25T08:42:27.772Z,2.80
2019-05-25T08:44:54.888Z,5.23
2019-05-25T08:47:21.846Z,3.80
2019-05-25T08:49:49.016Z,4.40
2019-05-25T08:52:15.892Z,3.30
2019-05-25T08:54:43.920Z,4.00
2019-05-25T08:57:14.868Z,4.30
2019-05-25T08:59:40.062Z,4.00
2019-05-25T09:02:07.424Z,3.63
2019-05-25T09:04:34.716Z,3.70
2019-05-25T09:07:01.706Z,3.00
2019-05-25T09:09:28.692Z,3.60
2019-05-25T09:11:55.635Z,3.40
2019-05-25T09:14:22.588Z,3.27
2019-05-25T09:16:49.533Z,2.90
2019-05-25T09:19:16.522Z,2.80
2019-05-25T09:21:43.768Z,3.73
2019-05-25T09:24:11.066Z,3.47
2019-05-25T09:26:38.331Z,3.80
2019-05-25T09:29:05.568Z,2.23
2019-05-25T09:31:32.696Z,3.30
2019-05-25T09:33:59.523Z,3.17
2019-05-25T09:36:28.435Z,2.10
2019-05-25T09:38:55.417Z,2.00
2019-05-25T09:41:22.413Z,2.33
2019-05-25T09:43:49.727Z,2.50
2019-05-25T09:46:18.734Z,2.57
2019-05-25T09:48:45.854Z,2.23
2019-05-25T09:51:15.890Z,3.20
2019-05-25T09:53:44.095Z,2.70
2019-05-25T09:56:11.591Z,2.40
2019-05-25T09:58:38.980Z,2.77
2019-05-25T10:01:06.125Z,2.37
2019-05-25T10:03:33.606Z,1.73
2019-05-25T10:06:09.802Z,2.43
2019-05-25T10:08:30.143Z,1.10
2019-05-25T10:10:57.617Z,2.07
2019-05-25T10:13:24.880Z,1.30
2019-05-25T10:15:52.108Z,1.53
2019-05-25T10:18:18.996Z,1.20
2019-05-25T10:20:45.983Z,1.37
2019-05-25T10:23:13.716Z,1.27
2019-05-25T10:25:40.803Z,2.00
2019-05-25T10:28:07.651Z,1.40
2019-05-25T10:30:35.067Z,2.00
2019-05-25T10:33:02.056Z,2.13
2019-05-25T10:35:29.674Z,2.53
2019-05-25T10:37:56.967Z,2.77
2019-05-25T10:40:24.044Z,1.70
2019-05-25T10:42:52.884Z,1.90
2019-05-25T10:45:20.226Z,1.60
2019-05-25T10:47:47.804Z,1.93
2019-05-25T10:50:15.932Z,1.70
2019-05-25T10:52:43.024Z,1.47
2019-05-25T10:55:11.900Z,1.63
2019-05-25T10:57:40.563Z,1.60
2019-05-25T11:00:08.477Z,1.63
2019-05-25T11:02:35.896Z,1.17
2019-05-25T11:05:03.769Z,1.50
2019-05-25T11:07:31.892Z,1.47
2019-05-25T11:09:59.036Z,1.00
2019-05-25T11:12:26.249Z,0.90
2019-05-25T11:14:54.015Z,1.03
2019-05-25T11:17:21.492Z,1.00
2019-05-25T11:19:48.436Z,1.40
2019-05-25T11:22:15.760Z,1.83
2019-05-25T11:24:42.785Z,1.40
2019-05-25T11:27:10.244Z,1.50
2019-05-25T11:29:37.516Z,1.30
2019-05-25T11:32:06.037Z,1.50
2019-05-25T11:34:33.408Z,1.30
2019-05-25T11:37:00.744Z,1.10
2019-05-25T11:39:27.588Z,1.10
2019-05-25T11:41:54.903Z,1.00
2019-05-25T11:44:22.009Z,0.93
2019-05-25T11:46:49.764Z,1.20
2019-05-25T11:49:22.418Z,1.20
2019-05-25T11:51:45.552Z,1.20
2019-05-25T11:54:12.546Z,1.20
2019-05-25T11:56:39.611Z,1.20
2019-05-25T11:59:06.491Z,1.73
2019-05-25T12:01:34.663Z,2.10
2019-05-25T12:04:02.150Z,2.07
2019-05-25T12:06:29.304Z,1.87
2019-05-25T12:08:56.295Z,1.80
2019-05-25T12:11:23.539Z,1.70
2019-05-25T12:13:50.387Z,1.57
2019-05-25T12:16:18.222Z,1.20
2019-05-25T12:18:45.888Z,1.60
2019-05-25T12:21:13.006Z,1.23
2019-05-25T12:23:40.401Z,1.60
2019-05-25T12:26:08.932Z,1.50
2019-05-25T12:28:36.295Z,1.30
2019-05-25T12:31:03.282Z,1.30
2019-05-25T12:33:31.157Z,1.10
2019-05-25T12:35:58.148Z,1.10
2019-05-25T12:38:25.352Z,1.70
2019-05-25T12:40:53.887Z,6.03
2019-05-25T12:43:21.397Z,6.07
2019-05-25T12:45:48.384Z,11.30
2019-05-25T12:48:15.525Z,8.87
2019-05-25T12:50:44.204Z,11.23
2019-05-25T12:53:11.352Z,11.20
2019-05-25T12:55:38.903Z,20.07
2019-05-25T12:58:05.868Z,13.93
2019-05-25T13:00:32.940Z,6.37
2019-05-25T13:03:00.378Z,4.20
2019-05-25T13:05:34.290Z,5.60
2019-05-25T13:07:56.184Z,5.33
2019-05-25T13:10:23.166Z,1.80
2019-05-25T13:12:50.144Z,1.30
2019-05-25T13:15:18.036Z,2.00
2019-05-25T13:17:45.072Z,2.73
2019-05-25T13:20:12.981Z,2.77
2019-05-25T13:22:40.600Z,1.80
2019-05-25T13:25:07.757Z,2.00
2019-05-25T13:27:35.216Z,1.60
2019-05-25T13:30:03.617Z,1.40
2019-05-25T13:32:32.122Z,1.87
2019-05-25T13:34:59.299Z,2.27
2019-05-25T13:37:26.843Z,2.20
2019-05-25T13:39:53.820Z,1.63
2019-05-25T13:42:21.401Z,1.93
2019-05-25T13:44:48.264Z,1.67
2019-05-25T13:47:15.480Z,1.50
2019-05-25T13:49:43.120Z,0.90
2019-05-25T13:52:12.525Z,1.47
2019-05-25T13:54:40.350Z,1.50
2019-05-25T13:57:07.600Z,1.37
2019-05-25T13:59:35.000Z,1.63
2019-05-25T14:02:02.617Z,1.13
2019-05-25T14:04:30.204Z,1.37
2019-05-25T14:06:58.574Z,1.40
2019-05-25T14:09:26.160Z,1.80
2019-05-25T14:11:53.915Z,1.43
2019-05-25T14:14:24.343Z,1.50
2019-05-25T14:16:50.740Z,1.70
2019-05-25T14:19:17.584Z,1.50
2019-05-25T14:21:44.568Z,1.53
2019-05-25T14:24:12.017Z,1.60
2019-05-25T14:26:39.715Z,1.87
2019-05-25T14:29:06.679Z,1.90
2019-05-25T14:31:44.841Z,1.90
2019-05-25T14:34:03.520Z,1.50
2019-05-25T14:36:31.480Z,1.20
2019-05-25T14:38:59.184Z,2.60
2019-05-25T14:41:26.772Z,1.87
2019-05-25T14:43:54.080Z,1.90
2019-05-25T14:46:27.898Z,1.40
2019-05-25T14:48:50.012Z,1.70
2019-05-25T14:51:17.288Z,1.40
2019-05-25T14:53:44.840Z,1.43
2019-05-25T14:56:11.668Z,1.70
2019-05-25T14:58:39.352Z,1.60
2019-05-25T15:01:06.446Z,1.80
2019-05-25T15:03:33.276Z,1.90
2019-05-25T15:06:00.227Z,1.50
2019-05-25T15:08:28.248Z,1.73
2019-05-25T15:10:55.560Z,1.67
2019-05-25T15:13:22.816Z,1.83
2019-05-25T15:15:50.533Z,1.40
2019-05-25T15:18:17.627Z,1.60
2019-05-25T15:20:44.880Z,1.67
2019-05-25T15:23:12.118Z,2.00
2019-05-25T15:25:39.335Z,1.67
2019-05-25T15:28:06.926Z,1.57
2019-05-25T15:30:34.353Z,1.47
2019-05-25T15:33:01.571Z,1.50
2019-05-25T15:35:28.922Z,1.50
2019-05-25T15:37:55.871Z,1.57
2019-05-25T15:40:23.440Z,2.33
2019-05-25T15:42:51.253Z,1.80
2019-05-25T15:45:19.836Z,1.60
2019-05-25T15:47:46.945Z,2.20
2019-05-25T15:50:15.236Z,1.90
2019-05-25T15:52:42.304Z,1.87
2019-05-25T15:55:09.868Z,1.87
2019-05-25T15:57:37.527Z,1.80
2019-05-25T16:00:07.033Z,2.07
2019-05-25T16:02:37.032Z,2.00
2019-05-25T16:05:04.516Z,1.70
2019-05-25T16:07:34.192Z,1.73
2019-05-25T16:10:01.793Z,1.73
2019-05-25T16:12:29.480Z,2.07
2019-05-25T16:14:57.115Z,1.70
2019-05-25T16:17:26.258Z,1.80
2019-05-25T16:19:54.084Z,1.80
2019-05-25T16:22:21.600Z,2.00
2019-05-25T16:24:49.200Z,1.80
2019-05-25T16:27:16.087Z,3.97
2019-05-25T16:29:43.039Z,3.13
2019-05-25T16:32:10.996Z,2.67
2019-05-25T16:34:37.958Z,1.73
2019-05-25T16:37:05.175Z,1.90
2019-05-25T16:39:32.588Z,1.67
2019-05-25T16:42:00.262Z,1.97
2019-05-25T16:44:29.013Z,2.40
2019-05-25T16:46:57.624Z,1.97
2019-05-25T16:49:24.687Z,1.53
2019-05-25T16:51:56.134Z,1.97
2019-05-25T16:54:24.044Z,1.50
2019-05-25T16:56:51.794Z,2.27
2019-05-25T16:59:18.857Z,2.10
2019-05-25T17:01:48.563Z,1.87
2019-05-25T17:04:15.328Z,2.57
2019-05-25T17:06:42.713Z,1.70
2019-05-25T17:09:10.016Z,1.87
2019-05-25T17:11:36.997Z,1.33
2019-05-25T17:14:04.059Z,1.90
2019-05-25T17:16:31.676Z,1.93
2019-05-25T17:18:58.648Z,1.60
2019-05-25T17:21:25.878Z,1.90
2019-05-25T17:23:53.188Z,1.60
2019-05-25T17:26:21.012Z,2.33
2019-05-25T17:28:48.316Z,2.30
2019-05-25T17:31:17.305Z,1.93
2019-05-25T17:33:46.772Z,2.23
2019-05-25T17:36:14.526Z,1.60
2019-05-25T17:38:42.152Z,2.07
2019-05-25T17:41:10.511Z,1.80
2019-05-25T17:43:37.945Z,1.90
2019-05-25T17:46:05.055Z,1.57
2019-05-25T17:48:32.924Z,2.40
2019-05-25T17:51:01.205Z,3.20
2019-05-25T17:53:28.568Z,3.00
2019-05-25T17:55:56.824Z,2.87
2019-05-25T17:58:25.340Z,2.80
2019-05-25T18:00:52.308Z,2.87
2019-05-25T18:03:20.081Z,3.60
2019-05-25T18:05:47.344Z,3.03
2019-05-25T18:08:15.149Z,3.33
2019-05-25T18:10:52.947Z,3.17
2019-05-25T18:13:13.212Z,2.70
2019-05-25T18:15:40.289Z,2.90
2019-05-25T18:18:08.406Z,3.23
2019-05-25T18:20:36.350Z,2.50
2019-05-25T18:23:04.302Z,2.40
2019-05-25T18:25:32.171Z,3.10
2019-05-25T18:27:59.928Z,2.87
2019-05-25T18:30:28.016Z,3.03
2019-05-25T18:32:55.597Z,3.20
2019-05-25T18:35:23.246Z,2.90
2019-05-25T18:37:51.552Z,2.93
2019-05-25T18:40:19.640Z,2.40
2019-05-25T18:42:46.788Z,2.43
2019-05-25T18:45:14.580Z,2.17
2019-05-25T18:47:42.856Z,2.20
2019-05-25T18:50:12.093Z,2.13
2019-05-25T18:52:39.948Z,1.90
2019-05-25T18:55:09.120Z,2.50
2019-05-25T18:57:36.836Z,2.30
2019-05-25T19:00:06.032Z,2.33
2019-05-25T19:02:33.107Z,2.63
2019-05-25T19:05:00.304Z,2.50
2019-05-25T19:07:28.249Z,2.47
2019-05-25T19:09:55.622Z,2.70
2019-05-25T19:12:22.451Z,2.10
2019-05-25T19:14:49.649Z,1.50
2019-05-25T19:17:17.224Z,2.23
2019-05-25T19:19:44.680Z,2.10
2019-05-25T19:22:12.539Z,2.47
2019-05-25T19:24:40.000Z,2.00
2019-05-25T19:27:07.912Z,2.30
2019-05-25T19:29:35.672Z,2.50
2019-05-25T19:32:04.153Z,2.33
2019-05-25T19:34:33.014Z,2.60
2019-05-25T19:37:03.420Z,2.57
2019-05-25T19:39:29.252Z,2.40
2019-05-25T19:41:56.231Z,2.70
2019-05-25T19:44:23.156Z,2.30
2019-05-25T19:46:50.864Z,2.13
2019-05-25T19:49:19.524Z,2.27
2019-05-25T19:51:46.496Z,3.97
2019-05-25T19:54:13.329Z,3.50
2019-05-25T19:56:40.876Z,2.80
2019-05-25T19:59:07.704Z,8.08
2019-05-25T20:01:34.558Z,11.12
2019-05-25T20:04:01.823Z,6.10
2019-05-25T20:06:29.371Z,5.80
2019-05-25T20:08:56.972Z,4.40
2019-05-25T20:11:24.652Z,3.17
2019-05-25T20:13:51.992Z,2.50
2019-05-25T20:16:19.244Z,2.30
2019-05-25T20:18:46.492Z,2.40
2019-05-25T20:21:14.008Z,2.00
2019-05-25T20:23:41.065Z,2.13
2019-05-25T20:26:09.719Z,2.40
2019-05-25T20:28:36.612Z,1.97
2019-05-25T20:31:03.760Z,2.67
2019-05-25T20:33:34.712Z,1.90
2019-05-25T20:36:00.588Z,2.03
2019-05-25T20:38:27.512Z,2.40
2019-05-25T20:40:54.780Z,2.00
2019-05-25T20:43:22.488Z,2.33
2019-05-25T20:45:50.423Z,1.80
2019-05-25T20:48:17.896Z,2.37
2019-05-25T20:50:44.884Z,2.40
2019-05-25T20:53:12.513Z,2.20
2019-05-25T20:55:39.537Z,2.17
2019-05-25T20:58:06.528Z,2.40
2019-05-25T21:00:33.779Z,2.40
2019-05-25T21:03:06.544Z,1.80
2019-05-25T21:05:30.411Z,2.13
2019-05-25T21:07:57.387Z,2.23
2019-05-25T21:10:24.483Z,2.37
2019-05-25T21:12:51.356Z,2.00
2019-05-25T21:15:19.026Z,2.00
2019-05-25T21:17:46.100Z,1.70
2019-05-25T21:20:14.472Z,2.30
2019-05-25T21:22:41.352Z,2.20
2019-05-25T21:25:09.874Z,2.37
2019-05-25T21:27:37.096Z,2.60
2019-05-25T21:30:04.805Z,2.30
2019-05-25T21:32:31.872Z,2.20
2019-05-25T21:34:58.920Z,2.70
2019-05-25T21:37:26.028Z,1.97
2019-05-25T21:39:53.068Z,2.10
2019-05-25T21:42:20.021Z,2.10
2019-05-25T21:44:47.356Z,1.90
2019-05-25T21:47:14.586Z,2.10
2019-05-25T21:49:42.052Z,2.80
2019-05-25T21:52:09.110Z,2.17
2019-05-25T21:54:36.408Z,2.00
2019-05-25T21:57:03.740Z,2.10
2019-05-25T21:59:32.712Z,2.83
2019-05-25T22:02:00.268Z,2.33
2019-05-25T22:04:27.120Z,2.33
2019-05-25T22:06:54.198Z,2.30
2019-05-25T22:09:21.220Z,3.30
2019-05-25T22:11:48.288Z,7.40
2019-05-25T22:14:15.276Z,9.67
2019-05-25T22:16:42.372Z,11.77
2019-05-25T22:19:09.744Z,6.70
2019-05-25T22:21:36.688Z,3.10
2019-05-25T22:24:05.077Z,3.30
2019-05-25T22:26:32.368Z,2.33
2019-05-25T22:29:00.360Z,1.80
2019-05-25T22:31:27.312Z,1.80
2019-05-25T22:33:54.310Z,2.37
2019-05-25T22:36:21.190Z,2.00
2019-05-25T22:38:48.269Z,2.30
2019-05-25T22:41:15.135Z,1.90
2019-05-25T22:43:43.411Z,2.20
2019-05-25T22:46:10.475Z,2.03
2019-05-25T22:48:37.714Z,2.20
2019-05-25T22:51:04.808Z,2.40
2019-05-25T22:53:32.372Z,2.30
2019-05-25T22:55:59.752Z,2.03
2019-05-25T22:58:26.950Z,2.00
2019-05-25T23:00:53.940Z,2.07
2019-05-25T23:03:21.037Z,1.97
2019-05-25T23:05:48.140Z,2.13
2019-05-25T23:08:15.392Z,1.80
2019-05-25T23:10:42.392Z,2.20
2019-05-25T23:13:09.236Z,2.40
2019-05-25T23:15:36.564Z,1.97
2019-05-25T23:18:03.624Z,3.10
2019-05-25T23:20:30.957Z,1.83
2019-05-25T23:22:58.015Z,2.07
2019-05-25T23:25:25.105Z,1.90
2019-05-25T23:27:51.940Z,2.23
2019-05-25T23:30:19.027Z,1.77
2019-05-25T23:32:46.219Z,2.40
2019-05-25T23:35:13.268Z,2.03
2019-05-25T23:37:40.809Z,2.03
2019-05-25T23:40:08.179Z,2.17
2019-05-25T23:42:35.127Z,2.07
2019-05-25T23:45:02.424Z,2.10
2019-05-25T23:47:29.508Z,1.80
2019-05-25T23:49:59.622Z,2.53
2019-05-25T23:52:25.824Z,1.93
2019-05-25T23:54:53.096Z,2.30
2019-05-25T23:57:20.209Z,1.60
2019-05-25T23:59:47.772Z,1.70
